Time;durP1;ratioP1;P1;durP2;ratioP2;P2;SDS_P1;SDS_P2;PMS_P1;PMS_P2;Temp;Humidity;BMP_temperature;BMP_pressure;BME280_temperature;BME280_humidity;BME280_pressure;Samples;Min_cycle;Max_cycle;Signal;HPM_P1;HPM_P2
2022/03/04 00:00:49;;;;;;;21.48;11.68;;;;;;;;;;5038364;28;20024;-84
2022/03/04 00:03:15;;;;;;;18.23;11.35;;;;;;;;;;5037766;28;20080;-84
2022/03/04 00:05:41;;;;;;;23.05;11.50;;;;;;;;;;5039521;28;20029;-84
2022/03/04 00:08:08;;;;;;;19.77;11.43;;;;;;;;;;5038861;28;20517;-85
2022/03/04 00:10:34;;;;;;;23.25;12.93;;;;;;;;;;5039884;28;20029;-85
2022/03/04 00:13:01;;;;;;;24.05;12.25;;;;;;;;;;5046485;28;20068;-85
2022/03/04 00:15:27;;;;;;;23.63;12.30;;;;;;;;;;5050600;28;20300;-85
2022/03/04 00:17:53;;;;;;;22.60;12.63;;;;;;;;;;5044080;28;20018;-85
2022/03/04 00:20:19;;;;;;;21.17;12.27;;;;;;;;;;5043266;28;20018;-85
2022/03/04 00:22:45;;;;;;;20.52;12.25;;;;;;;;;;5044161;28;20048;-85
2022/03/04 00:25:11;;;;;;;20.25;12.90;;;;;;;;;;5055083;28;20441;-84
2022/03/04 00:27:38;;;;;;;21.52;12.40;;;;;;;;;;5044786;28;20034;-85
2022/03/04 00:30:05;;;;;;;20.35;12.50;;;;;;;;;;5053204;28;20029;-84
2022/03/04 00:32:31;;;;;;;22.85;13.55;;;;;;;;;;5036704;28;20065;-87
2022/03/04 00:34:57;;;;;;;23.65;13.98;;;;;;;;;;5035560;28;20025;-87
2022/03/04 00:37:23;;;;;;;22.52;12.45;;;;;;;;;;5040946;28;20025;-87
2022/03/04 00:39:49;;;;;;;23.35;13.25;;;;;;;;;;5038944;28;20022;-87
2022/03/04 00:42:15;;;;;;;22.23;12.63;;;;;;;;;;5042928;28;20021;-86
2022/03/04 00:44:41;;;;;;;22.88;12.98;;;;;;;;;;5054914;28;20029;-87
2022/03/04 00:47:07;;;;;;;21.73;12.15;;;;;;;;;;5039046;28;20049;-83
2022/03/04 00:49:34;;;;;;;20.70;12.00;;;;;;;;;;5040644;28;20033;-84
2022/03/04 00:52:00;;;;;;;22.88;12.82;;;;;;;;;;5039455;28;20028;-84
2022/03/04 00:54:26;;;;;;;20.75;12.52;;;;;;;;;;5042660;28;20045;-85
2022/03/04 00:56:52;;;;;;;24.38;13.25;;;;;;;;;;5055194;28;20435;-85
2022/03/04 00:59:18;;;;;;;23.05;12.80;;;;;;;;;;5054742;28;20048;-85
2022/03/04 01:01:44;;;;;;;26.42;14.27;;;;;;;;;;5056626;28;20032;-85
2022/03/04 01:04:10;;;;;;;23.67;12.70;;;;;;;;;;5052601;28;20071;-85
2022/03/04 01:06:38;;;;;;;22.83;11.93;;;;;;;;;;5043891;28;20387;-85
2022/03/04 01:09:04;;;;;;;24.00;12.50;;;;;;;;;;5037372;28;20095;-85
2022/03/04 01:11:30;;;;;;;27.13;14.50;;;;;;;;;;5031387;28;20047;-86
2022/03/04 01:13:56;;;;;;;25.23;12.75;;;;;;;;;;5031575;28;20049;-84
2022/03/04 01:16:23;;;;;;;22.63;13.57;;;;;;;;;;5032943;28;20530;-85
2022/03/04 01:18:49;;;;;;;20.90;12.73;;;;;;;;;;5053259;28;20045;-85
2022/03/04 01:21:15;;;;;;;24.25;13.60;;;;;;;;;;5044233;28;20377;-84
2022/03/04 01:23:41;;;;;;;29.80;13.93;;;;;;;;;;5034375;28;20044;-84
2022/03/04 01:26:07;;;;;;;23.90;12.85;;;;;;;;;;5051151;28;20033;-84
2022/03/04 01:28:33;;;;;;;24.35;12.63;;;;;;;;;;5053323;28;20048;-84
2022/03/04 01:30:59;;;;;;;23.63;13.25;;;;;;;;;;5064814;28;20091;-84
2022/03/04 01:33:26;;;;;;;27.60;13.10;;;;;;;;;;5057644;28;20426;-83
2022/03/04 01:35:52;;;;;;;22.75;13.85;;;;;;;;;;5054929;28;20021;-85
2022/03/04 01:38:18;;;;;;;25.90;13.85;;;;;;;;;;5043185;28;20025;-84
2022/03/04 01:40:45;;;;;;;21.60;12.55;;;;;;;;;;5059289;28;20497;-85
2022/03/04 01:43:11;;;;;;;23.02;12.38;;;;;;;;;;5061714;28;20104;-85
2022/03/04 01:45:37;;;;;;;23.33;13.27;;;;;;;;;;5060490;28;20128;-85
2022/03/04 01:48:03;;;;;;;22.67;13.00;;;;;;;;;;5059440;28;20033;-84
2022/03/04 01:50:29;;;;;;;22.83;13.60;;;;;;;;;;5060182;28;20036;-84
2022/03/04 01:52:55;;;;;;;22.98;13.43;;;;;;;;;;5056925;28;20111;-84
2022/03/04 01:55:21;;;;;;;22.27;13.10;;;;;;;;;;5039774;28;20045;-84
2022/03/04 01:57:47;;;;;;;23.85;13.55;;;;;;;;;;5038234;28;20040;-84
2022/03/04 02:00:16;;;;;;;23.10;13.82;;;;;;;;;;5055009;28;20027;-84
2022/03/04 02:02:42;;;;;;;23.63;13.07;;;;;;;;;;5037902;28;20021;-84
2022/03/04 02:05:12;;;;;;;23.80;14.35;;;;;;;;;;5049546;28;20075;-84
2022/03/04 02:07:38;;;;;;;24.13;13.77;;;;;;;;;;5047497;28;20029;-84
2022/03/04 02:10:04;;;;;;;26.55;14.05;;;;;;;;;;5049569;28;20052;-84
2022/03/04 02:12:30;;;;;;;23.92;14.20;;;;;;;;;;5056073;28;20613;-85
2022/03/04 02:14:56;;;;;;;24.80;13.07;;;;;;;;;;5057544;28;20061;-84
2022/03/04 02:17:22;;;;;;;23.77;13.80;;;;;;;;;;5051818;28;20053;-84
2022/03/04 02:19:53;;;;;;;22.95;12.60;;;;;;;;;;5057078;28;20124;-84
2022/03/04 02:22:19;;;;;;;24.02;13.60;;;;;;;;;;5040134;28;20506;-84
2022/03/04 02:24:45;;;;;;;23.88;14.02;;;;;;;;;;5037780;28;20029;-84
2022/03/04 02:27:11;;;;;;;25.00;14.63;;;;;;;;;;5050830;28;20032;-84
2022/03/04 02:29:38;;;;;;;24.60;14.02;;;;;;;;;;5057018;28;20037;-83
2022/03/04 02:32:05;;;;;;;24.65;14.68;;;;;;;;;;5057347;28;20084;-83
2022/03/04 02:34:31;;;;;;;23.35;13.73;;;;;;;;;;5072103;28;20034;-83
2022/03/04 02:36:58;;;;;;;24.48;13.80;;;;;;;;;;5058392;28;20028;-83
2022/03/04 02:39:24;;;;;;;26.65;13.55;;;;;;;;;;5059604;28;20021;-82
2022/03/04 02:41:50;;;;;;;22.58;13.63;;;;;;;;;;5059995;28;20091;-82
2022/03/04 02:44:16;;;;;;;25.35;14.20;;;;;;;;;;5050764;28;20037;-85
2022/03/04 02:46:42;;;;;;;24.48;13.68;;;;;;;;;;5046875;28;20029;-85
2022/03/04 02:49:09;;;;;;;25.55;13.73;;;;;;;;;;5061331;28;20029;-84
2022/03/04 02:51:36;;;;;;;26.25;13.63;;;;;;;;;;5059702;28;20029;-84
2022/03/04 02:54:02;;;;;;;23.05;14.02;;;;;;;;;;5061984;28;20025;-85
2022/03/04 02:56:28;;;;;;;23.88;12.70;;;;;;;;;;5056278;28;20060;-83
2022/03/04 02:58:54;;;;;;;22.58;13.27;;;;;;;;;;5059896;28;20055;-83
2022/03/04 03:01:20;;;;;;;31.08;15.27;;;;;;;;;;5061196;28;20017;-84
2022/03/04 03:03:46;;;;;;;28.50;16.35;;;;;;;;;;5060838;28;20025;-84
2022/03/04 03:06:12;;;;;;;28.63;16.35;;;;;;;;;;5049360;28;20508;-84
2022/03/04 03:08:38;;;;;;;33.17;17.75;;;;;;;;;;5041226;28;20399;-84
2022/03/04 03:11:04;;;;;;;28.63;16.27;;;;;;;;;;5041045;28;20483;-85
2022/03/04 03:13:31;;;;;;;31.15;17.23;;;;;;;;;;5041082;28;20038;-86
2022/03/04 03:15:57;;;;;;;34.33;16.90;;;;;;;;;;5040563;28;20029;-86
2022/03/04 03:18:23;;;;;;;27.95;17.27;;;;;;;;;;5057472;28;20052;-86
2022/03/04 03:20:49;;;;;;;41.67;20.55;;;;;;;;;;5054141;28;20026;-86
2022/03/04 03:23:15;;;;;;;38.25;20.88;;;;;;;;;;5042106;28;20070;-85
2022/03/04 03:25:41;;;;;;;32.10;17.73;;;;;;;;;;5042169;28;20467;-86
2022/03/04 03:28:09;;;;;;;36.05;19.50;;;;;;;;;;5042598;28;20060;-85
2022/03/04 03:30:35;;;;;;;40.80;21.20;;;;;;;;;;5059570;28;20091;-85
2022/03/04 03:33:01;;;;;;;40.03;22.33;;;;;;;;;;5060632;28;20368;-84
2022/03/04 03:35:28;;;;;;;44.35;21.90;;;;;;;;;;5056522;28;20449;-84
2022/03/04 03:37:54;;;;;;;42.25;20.58;;;;;;;;;;5058456;28;20021;-83
2022/03/04 03:40:20;;;;;;;43.90;21.92;;;;;;;;;;5059741;28;20113;-84
2022/03/04 03:42:46;;;;;;;44.55;21.30;;;;;;;;;;5058620;28;20025;-84
2022/03/04 03:45:12;;;;;;;42.92;22.42;;;;;;;;;;5059879;28;20025;-84
2022/03/04 03:47:40;;;;;;;39.10;20.25;;;;;;;;;;5058997;28;20056;-84
2022/03/04 03:50:09;;;;;;;39.28;21.45;;;;;;;;;;5058379;28;20399;-84
2022/03/04 03:52:35;;;;;;;43.20;20.52;;;;;;;;;;5044152;28;20034;-84
2022/03/04 03:55:01;;;;;;;36.20;21.80;;;;;;;;;;5040201;28;20025;-84
2022/03/04 03:57:27;;;;;;;43.10;21.58;;;;;;;;;;5040188;28;20052;-84
2022/03/04 03:59:53;;;;;;;41.50;21.95;;;;;;;;;;5048789;28;20025;-83
2022/03/04 04:02:19;;;;;;;39.67;21.98;;;;;;;;;;5058022;28;20369;-84
2022/03/04 04:04:46;;;;;;;38.95;21.45;;;;;;;;;;5038280;28;20148;-84
2022/03/04 04:07:12;;;;;;;42.33;22.67;;;;;;;;;;5040354;28;20021;-83
2022/03/04 04:09:39;;;;;;;42.20;21.95;;;;;;;;;;5048464;28;20025;-84
2022/03/04 04:12:05;;;;;;;40.08;22.40;;;;;;;;;;5059435;28;20032;-84
2022/03/04 04:14:31;;;;;;;37.85;20.60;;;;;;;;;;5056945;28;20124;-84
2022/03/04 04:16:57;;;;;;;38.85;21.52;;;;;;;;;;5039576;28;20018;-84
2022/03/04 04:19:24;;;;;;;41.05;20.40;;;;;;;;;;5040207;28;20030;-83
2022/03/04 04:21:51;;;;;;;42.58;20.33;;;;;;;;;;5039796;28;20033;-83
2022/03/04 04:24:17;;;;;;;46.63;22.17;;;;;;;;;;5071517;28;20024;-84
2022/03/04 04:26:43;;;;;;;42.25;21.42;;;;;;;;;;5065565;28;20057;-84
2022/03/04 04:29:10;;;;;;;46.15;24.33;;;;;;;;;;5046849;28;20036;-84
2022/03/04 04:31:36;;;;;;;42.75;21.17;;;;;;;;;;5049976;28;20087;-83
2022/03/04 04:34:03;;;;;;;46.42;22.23;;;;;;;;;;5038991;28;20033;-84
2022/03/04 04:36:29;;;;;;;50.00;23.27;;;;;;;;;;5039510;28;20049;-84
2022/03/04 04:38:56;;;;;;;47.40;24.05;;;;;;;;;;5042066;28;20472;-83
2022/03/04 04:41:22;;;;;;;46.95;23.67;;;;;;;;;;5043742;28;20051;-84
2022/03/04 04:43:48;;;;;;;51.08;23.90;;;;;;;;;;5057406;28;20075;-84
2022/03/04 04:46:14;;;;;;;46.20;20.88;;;;;;;;;;5048106;28;20079;-83
2022/03/04 04:48:40;;;;;;;47.33;22.30;;;;;;;;;;5057067;28;20025;-84
2022/03/04 04:51:07;;;;;;;47.55;22.23;;;;;;;;;;5062150;28;20032;-84
2022/03/04 04:53:34;;;;;;;50.42;23.02;;;;;;;;;;5054153;28;20436;-84
2022/03/04 04:56:00;;;;;;;50.45;21.75;;;;;;;;;;5048202;28;20663;-85
2022/03/04 04:58:27;;;;;;;47.42;23.70;;;;;;;;;;5041098;28;20032;-84
2022/03/04 05:00:54;;;;;;;41.08;21.27;;;;;;;;;;5039802;28;20014;-84
2022/03/04 05:03:21;;;;;;;43.05;21.45;;;;;;;;;;5037073;28;20033;-84
2022/03/04 05:05:48;;;;;;;47.33;22.20;;;;;;;;;;5045448;28;20029;-83
2022/03/04 05:08:14;;;;;;;46.65;22.60;;;;;;;;;;5061377;28;20059;-84
2022/03/04 05:10:40;;;;;;;41.97;20.52;;;;;;;;;;5056884;28;20025;-83
2022/03/04 05:13:07;;;;;;;41.05;20.63;;;;;;;;;;5056771;28;20040;-84
2022/03/04 05:15:34;;;;;;;44.53;20.15;;;;;;;;;;5044994;28;20063;-83
2022/03/04 05:18:00;;;;;;;52.85;21.33;;;;;;;;;;5036613;28;20017;-83
2022/03/04 05:20:26;;;;;;;50.28;22.15;;;;;;;;;;5034809;28;20067;-84
2022/03/04 05:22:52;;;;;;;44.42;22.85;;;;;;;;;;5039328;28;20032;-84
2022/03/04 05:25:18;;;;;;;43.35;20.58;;;;;;;;;;5046208;28;20028;-83
2022/03/04 05:27:44;;;;;;;43.78;20.67;;;;;;;;;;5051267;28;20033;-84
2022/03/04 05:30:10;;;;;;;45.30;21.73;;;;;;;;;;5045866;28;20028;-84
2022/03/04 05:32:36;;;;;;;41.33;20.80;;;;;;;;;;5047036;28;20586;-83
2022/03/04 05:35:03;;;;;;;42.78;20.30;;;;;;;;;;5051521;28;20123;-85
2022/03/04 05:37:29;;;;;;;38.40;19.38;;;;;;;;;;5050830;28;20025;-85
2022/03/04 05:39:55;;;;;;;39.40;20.88;;;;;;;;;;5046250;28;20033;-85
2022/03/04 05:42:21;;;;;;;42.10;21.92;;;;;;;;;;5037734;28;20407;-85
2022/03/04 05:44:47;;;;;;;37.13;17.65;;;;;;;;;;5043501;28;20112;-85
2022/03/04 05:47:13;;;;;;;41.10;20.30;;;;;;;;;;5049691;28;20134;-85
2022/03/04 05:49:39;;;;;;;38.72;19.10;;;;;;;;;;5043139;28;20111;-86
2022/03/04 05:52:05;;;;;;;40.72;19.80;;;;;;;;;;5037437;28;20550;-85
2022/03/04 05:54:31;;;;;;;43.13;19.02;;;;;;;;;;5037352;28;20022;-85
2022/03/04 05:56:57;;;;;;;36.20;18.60;;;;;;;;;;5050242;28;20045;-85
2022/03/04 05:59:24;;;;;;;41.60;20.08;;;;;;;;;;5075676;28;20049;-90
2022/03/04 06:01:50;;;;;;;35.15;19.40;;;;;;;;;;5064532;28;20043;-86
2022/03/04 06:04:17;;;;;;;38.30;17.95;;;;;;;;;;5064994;28;20033;-86
2022/03/04 06:06:44;;;;;;;38.08;17.92;;;;;;;;;;5059906;28;20384;-86
2022/03/04 06:09:10;;;;;;;41.78;17.55;;;;;;;;;;5054978;28;20032;-85
2022/03/04 06:11:36;;;;;;;35.05;18.92;;;;;;;;;;5042032;28;20036;-86
2022/03/04 06:14:02;;;;;;;35.75;18.52;;;;;;;;;;5036190;28;20077;-86
2022/03/04 06:16:28;;;;;;;38.42;17.75;;;;;;;;;;5046861;28;20040;-85
2022/03/04 06:18:54;;;;;;;35.92;18.02;;;;;;;;;;5055380;28;20025;-86
2022/03/04 06:21:20;;;;;;;38.25;18.40;;;;;;;;;;5056476;28;20112;-87
2022/03/04 06:23:46;;;;;;;32.63;17.00;;;;;;;;;;5057095;28;20048;-86
2022/03/04 06:26:13;;;;;;;36.30;17.08;;;;;;;;;;5037479;28;20048;-86
2022/03/04 06:28:39;;;;;;;37.78;18.27;;;;;;;;;;5035597;28;20025;-85
2022/03/04 06:31:05;;;;;;;32.38;16.25;;;;;;;;;;5039846;28;20502;-85
2022/03/04 06:33:35;;;;;;;35.47;16.55;;;;;;;;;;5041469;28;20467;-84
2022/03/04 06:36:15;;;;;;;34.78;17.77;;;;;;;;;;5036348;28;20033;-86
2022/03/04 06:38:43;;;;;;;39.22;18.08;;;;;;;;;;5074708;28;20041;-86
2022/03/04 06:41:14;;;;;;;38.60;19.30;;;;;;;;;;5074398;28;20031;-86
2022/03/04 06:43:40;;;;;;;33.63;18.48;;;;;;;;;;5076866;28;20021;-86
2022/03/04 06:46:07;;;;;;;38.90;20.40;;;;;;;;;;5052500;28;20086;-86
2022/03/04 06:48:33;;;;;;;36.25;18.08;;;;;;;;;;5046798;28;20033;-85
2022/03/04 06:50:59;;;;;;;38.35;18.70;;;;;;;;;;5034798;28;20079;-87
2022/03/04 06:53:25;;;;;;;36.45;18.63;;;;;;;;;;5035901;28;20033;-86
2022/03/04 06:55:52;;;;;;;41.08;19.38;;;;;;;;;;5045594;28;20037;-86
2022/03/04 06:58:18;;;;;;;34.45;17.30;;;;;;;;;;5037011;28;20031;-86
2022/03/04 07:00:46;;;;;;;38.15;18.85;;;;;;;;;;5036442;28;20037;-85
2022/03/04 07:03:13;;;;;;;35.05;16.92;;;;;;;;;;5049937;28;20017;-86
2022/03/04 07:05:39;;;;;;;33.30;17.58;;;;;;;;;;5036324;28;20026;-84
2022/03/04 07:08:11;;;;;;;36.33;17.02;;;;;;;;;;5038169;28;20193;-86
2022/03/04 07:10:37;;;;;;;32.53;16.67;;;;;;;;;;5063467;28;20024;-85
2022/03/04 07:13:04;;;;;;;32.72;16.60;;;;;;;;;;5045909;28;20029;-86
2022/03/04 07:15:30;;;;;;;34.65;16.83;;;;;;;;;;5057332;28;20372;-85
2022/03/04 07:17:56;;;;;;;35.75;16.35;;;;;;;;;;5049480;28;20025;-85
2022/03/04 07:20:22;;;;;;;38.97;18.15;;;;;;;;;;5057188;28;20021;-84
2022/03/04 07:22:48;;;;;;;36.85;18.55;;;;;;;;;;5047174;28;20529;-84
2022/03/04 07:25:18;;;;;;;39.65;18.55;;;;;;;;;;5053654;28;20032;-83
2022/03/04 07:27:45;;;;;;;39.50;19.40;;;;;;;;;;5038018;28;20562;-84
2022/03/04 07:30:12;;;;;;;34.78;19.35;;;;;;;;;;5041212;28;20040;-85
2022/03/04 07:32:38;;;;;;;40.10;17.92;;;;;;;;;;5040170;28;20033;-83
2022/03/04 07:35:06;;;;;;;38.58;18.08;;;;;;;;;;5038677;28;20032;-83
2022/03/04 07:37:32;;;;;;;40.28;20.27;;;;;;;;;;5037619;28;20387;-83
2022/03/04 07:39:58;;;;;;;40.83;19.58;;;;;;;;;;5052542;28;20021;-84
2022/03/04 07:42:24;;;;;;;36.58;18.10;;;;;;;;;;5039923;28;20029;-84
2022/03/04 07:44:50;;;;;;;40.60;20.00;;;;;;;;;;5033670;28;20032;-85
2022/03/04 07:47:16;;;;;;;36.72;18.10;;;;;;;;;;5034528;28;20033;-84
2022/03/04 07:49:43;;;;;;;37.17;19.50;;;;;;;;;;5041767;28;20032;-83
2022/03/04 07:52:09;;;;;;;33.83;17.52;;;;;;;;;;5036171;28;20021;-84
2022/03/04 07:54:35;;;;;;;34.85;17.70;;;;;;;;;;5040111;28;20033;-85
2022/03/04 07:57:01;;;;;;;36.97;17.95;;;;;;;;;;5043758;28;20428;-83
2022/03/04 07:59:27;;;;;;;31.92;16.42;;;;;;;;;;5044231;28;20103;-84
2022/03/04 08:01:53;;;;;;;34.00;17.58;;;;;;;;;;5038733;28;20044;-83
2022/03/04 08:04:19;;;;;;;35.05;17.45;;;;;;;;;;5045651;28;20032;-84
2022/03/04 08:06:45;;;;;;;27.17;14.75;;;;;;;;;;5056009;28;20115;-84
2022/03/04 08:09:11;;;;;;;32.75;16.40;;;;;;;;;;5054841;28;20029;-84
2022/03/04 08:11:37;;;;;;;32.58;16.23;;;;;;;;;;5042380;28;20021;-85
2022/03/04 08:14:04;;;;;;;38.53;16.98;;;;;;;;;;5038039;28;20039;-84
2022/03/04 08:16:30;;;;;;;29.80;16.13;;;;;;;;;;5037742;28;20091;-84
2022/03/04 08:18:56;;;;;;;36.50;16.95;;;;;;;;;;5038772;28;20029;-85
2022/03/04 08:21:23;;;;;;;34.05;17.40;;;;;;;;;;5037234;28;20025;-80
2022/03/04 08:23:49;;;;;;;34.10;16.30;;;;;;;;;;5036203;28;20030;-85
2022/03/04 08:26:15;;;;;;;31.33;17.17;;;;;;;;;;5055505;28;20534;-84
2022/03/04 08:28:41;;;;;;;34.85;16.33;;;;;;;;;;5054917;28;20403;-84
2022/03/04 08:31:13;;;;;;;34.50;17.80;;;;;;;;;;5055899;28;20035;-84
2022/03/04 08:33:43;;;;;;;34.07;17.93;;;;;;;;;;5057089;28;20047;-84
2022/03/04 08:36:09;;;;;;;35.55;20.13;;;;;;;;;;5054909;28;20028;-86
2022/03/04 08:38:35;;;;;;;41.80;19.08;;;;;;;;;;5054837;28;20029;-85
2022/03/04 08:41:01;;;;;;;29.30;15.48;;;;;;;;;;5055437;28;20112;-84
2022/03/04 08:43:28;;;;;;;30.33;14.82;;;;;;;;;;5052295;28;20017;-84
2022/03/04 08:45:54;;;;;;;35.13;16.45;;;;;;;;;;5053510;28;20116;-84
2022/03/04 08:48:20;;;;;;;32.88;16.65;;;;;;;;;;5058921;28;20028;-83
2022/03/04 08:50:46;;;;;;;32.15;17.25;;;;;;;;;;5053591;28;20040;-85
2022/03/04 08:53:12;;;;;;;31.88;16.35;;;;;;;;;;5058683;28;20021;-83
2022/03/04 08:55:41;;;;;;;35.22;17.25;;;;;;;;;;5038799;28;20067;-83
2022/03/04 08:58:08;;;;;;;36.50;17.40;;;;;;;;;;5045502;28;20024;-85
2022/03/04 09:00:34;;;;;;;33.90;15.98;;;;;;;;;;5060007;28;20025;-83
2022/03/04 09:03:00;;;;;;;32.72;15.50;;;;;;;;;;5049572;28;20026;-86
2022/03/04 09:05:26;;;;;;;29.83;15.48;;;;;;;;;;5047853;28;20025;-84
2022/03/04 09:07:52;;;;;;;30.63;14.63;;;;;;;;;;5046969;28;20159;-85
2022/03/04 09:10:18;;;;;;;33.00;17.10;;;;;;;;;;5058661;28;20018;-84
2022/03/04 09:12:44;;;;;;;33.80;16.30;;;;;;;;;;5054725;28;20052;-84
2022/03/04 09:15:11;;;;;;;30.27;14.45;;;;;;;;;;5048328;28;20037;-84
2022/03/04 09:17:37;;;;;;;26.60;14.63;;;;;;;;;;5050465;28;20021;-85
2022/03/04 09:20:04;;;;;;;26.25;15.68;;;;;;;;;;5049868;28;20052;-84
2022/03/04 09:22:30;;;;;;;28.15;14.10;;;;;;;;;;5049953;28;20017;-85
2022/03/04 09:24:56;;;;;;;27.58;14.90;;;;;;;;;;5057059;28;20043;-85
2022/03/04 09:27:22;;;;;;;28.15;14.20;;;;;;;;;;5066793;28;20032;-84
2022/03/04 09:29:48;;;;;;;28.98;13.45;;;;;;;;;;5070162;28;20040;-83
2022/03/04 09:32:14;;;;;;;29.30;14.27;;;;;;;;;;5069205;28;20036;-84
2022/03/04 09:34:40;;;;;;;31.60;15.43;;;;;;;;;;5057281;28;20029;-85
2022/03/04 09:37:06;;;;;;;33.38;15.40;;;;;;;;;;5061389;28;20032;-85
2022/03/04 09:39:32;;;;;;;27.90;14.43;;;;;;;;;;5055542;28;20440;-85
2022/03/04 09:41:58;;;;;;;28.58;15.23;;;;;;;;;;5052831;28;20109;-85
2022/03/04 09:44:24;;;;;;;26.48;15.20;;;;;;;;;;5073544;28;20017;-84
2022/03/04 09:46:50;;;;;;;25.88;13.85;;;;;;;;;;5055346;28;20024;-82
2022/03/04 09:49:17;;;;;;;24.27;13.68;;;;;;;;;;5056940;28;20018;-81
2022/03/04 09:51:43;;;;;;;28.45;15.20;;;;;;;;;;5053904;28;20030;-86
2022/03/04 09:54:09;;;;;;;30.10;13.65;;;;;;;;;;5052304;28;20033;-84
2022/03/04 09:56:35;;;;;;;27.52;15.02;;;;;;;;;;5058320;28;20041;-86
2022/03/04 09:59:01;;;;;;;27.85;14.23;;;;;;;;;;5059729;28;20152;-85
2022/03/04 10:01:27;;;;;;;25.05;13.95;;;;;;;;;;5042090;28;20507;-84
2022/03/04 10:03:55;;;;;;;26.23;14.45;;;;;;;;;;5040162;28;20030;-85
2022/03/04 10:06:21;;;;;;;26.25;14.70;;;;;;;;;;5036114;28;20040;-84
2022/03/04 10:08:49;;;;;;;24.85;13.55;;;;;;;;;;5036976;28;20037;-83
2022/03/04 10:11:32;;;;;;;27.60;14.13;;;;;;;;;;5051568;28;20115;-84
2022/03/04 10:13:59;;;;;;;24.70;12.38;;;;;;;;;;5054496;28;20029;-84
2022/03/04 10:16:27;;;;;;;28.15;11.73;;;;;;;;;;5056824;28;20029;-84
2022/03/04 10:19:09;;;;;;;22.17;12.40;;;;;;;;;;5055167;28;20091;-84
2022/03/04 10:21:55;;;;;;;28.10;12.98;;;;;;;;;;5041716;28;20038;-84
2022/03/04 10:24:29;;;;;;;23.58;12.80;;;;;;;;;;5037054;28;20109;-84
2022/03/04 10:27:08;;;;;;;23.05;11.75;;;;;;;;;;5037335;28;20021;-85
2022/03/04 10:29:40;;;;;;;21.70;11.20;;;;;;;;;;5038923;28;20093;-85
2022/03/04 10:32:15;;;;;;;24.10;12.15;;;;;;;;;;5040747;28;20036;-83
2022/03/04 10:34:45;;;;;;;23.35;12.20;;;;;;;;;;5039587;28;20557;-85
2022/03/04 10:37:11;;;;;;;21.45;12.13;;;;;;;;;;5040493;28;20368;-83
2022/03/04 10:39:37;;;;;;;26.52;13.40;;;;;;;;;;5040440;28;20017;-83
2022/03/04 10:42:03;;;;;;;26.80;12.95;;;;;;;;;;5039026;28;20025;-84
2022/03/04 10:44:29;;;;;;;24.73;12.20;;;;;;;;;;5053125;28;20541;-83
2022/03/04 10:46:56;;;;;;;25.73;12.25;;;;;;;;;;5058089;28;20086;-83
2022/03/04 10:49:26;;;;;;;23.02;11.93;;;;;;;;;;5049690;28;20018;-83
2022/03/04 10:52:06;;;;;;;23.05;11.80;;;;;;;;;;5040139;28;20438;-85
2022/03/04 10:54:32;;;;;;;25.40;12.70;;;;;;;;;;5041401;28;20071;-83
2022/03/04 10:57:03;;;;;;;22.17;12.65;;;;;;;;;;5039313;28;20045;-84
2022/03/04 10:59:29;;;;;;;24.17;13.75;;;;;;;;;;5043667;28;20506;-85
2022/03/04 11:01:55;;;;;;;24.60;14.20;;;;;;;;;;5058782;28;20064;-84
2022/03/04 11:04:22;;;;;;;24.45;12.60;;;;;;;;;;5059410;28;20394;-85
2022/03/04 11:06:49;;;;;;;23.73;13.70;;;;;;;;;;5058158;28;20356;-84
2022/03/04 11:09:16;;;;;;;23.88;13.60;;;;;;;;;;5040709;28;20084;-84
2022/03/04 11:11:43;;;;;;;22.05;11.50;;;;;;;;;;5037538;28;20042;-84
2022/03/04 11:14:13;;;;;;;24.55;12.90;;;;;;;;;;5047064;28;20360;-84
2022/03/04 11:16:39;;;;;;;27.45;15.48;;;;;;;;;;5055226;28;20021;-84
2022/03/04 11:19:08;;;;;;;27.33;13.65;;;;;;;;;;5052717;28;20025;-82
2022/03/04 11:21:34;;;;;;;23.60;11.90;;;;;;;;;;5043806;28;20025;-83
2022/03/04 11:24:01;;;;;;;21.77;11.68;;;;;;;;;;5039479;28;20089;-84
2022/03/04 11:26:31;;;;;;;24.38;13.40;;;;;;;;;;5038576;28;20061;-84
2022/03/04 11:28:59;;;;;;;26.05;13.00;;;;;;;;;;5036737;28;20029;-84
2022/03/04 11:31:26;;;;;;;25.67;13.23;;;;;;;;;;5039623;28;20014;-84
2022/03/04 11:34:00;;;;;;;24.25;12.85;;;;;;;;;;5038434;28;20044;-85
2022/03/04 11:36:29;;;;;;;27.40;13.60;;;;;;;;;;5057069;28;20032;-82
2022/03/04 11:38:57;;;;;;;25.35;13.63;;;;;;;;;;5039696;28;20049;-84
2022/03/04 11:41:34;;;;;;;26.77;12.38;;;;;;;;;;5041466;28;20028;-84
2022/03/04 11:44:12;;;;;;;24.60;12.73;;;;;;;;;;5054999;28;20490;-85
2022/03/04 11:46:41;;;;;;;22.52;12.20;;;;;;;;;;5038351;28;20029;-83
2022/03/04 11:49:23;;;;;;;21.35;12.77;;;;;;;;;;5059216;28;20063;-85
2022/03/04 11:52:21;;;;;;;22.67;11.38;;;;;;;;;;5044049;28;20399;-84
2022/03/04 11:55:07;;;;;;;24.85;13.32;;;;;;;;;;5051704;28;20040;-84
2022/03/04 11:57:36;;;;;;;21.52;12.50;;;;;;;;;;5038811;28;20075;-84
2022/03/04 12:00:02;;;;;;;20.00;11.75;;;;;;;;;;5040383;28;20048;-84
2022/03/04 12:02:47;;;;;;;24.58;13.13;;;;;;;;;;5057531;28;20032;-84
2022/03/04 12:05:13;;;;;;;21.83;11.60;;;;;;;;;;5052527;28;20026;-83
2022/03/04 12:07:44;;;;;;;17.90;10.57;;;;;;;;;;5041280;28;20025;-85
2022/03/04 12:10:13;;;;;;;22.92;12.20;;;;;;;;;;5053078;28;20027;-85
2022/03/04 12:12:40;;;;;;;18.55;10.23;;;;;;;;;;5059758;28;20029;-85
2022/03/04 12:15:18;;;;;;;19.73;10.45;;;;;;;;;;5046625;28;20028;-85
2022/03/04 12:18:11;;;;;;;18.48;10.35;;;;;;;;;;5051712;28;20021;-85
2022/03/04 12:20:40;;;;;;;21.50;10.73;;;;;;;;;;5052307;28;20041;-85
2022/03/04 12:23:10;;;;;;;20.23;11.75;;;;;;;;;;5053148;28;20313;-83
2022/03/04 12:25:55;;;;;;;20.50;10.75;;;;;;;;;;5069132;28;20009;-84
2022/03/04 12:28:21;;;;;;;17.15;9.57;;;;;;;;;;5052954;28;20025;-83
2022/03/04 12:31:02;;;;;;;16.88;9.70;;;;;;;;;;5058372;28;20025;-86
2022/03/04 12:33:28;;;;;;;19.50;9.20;;;;;;;;;;5045278;28;20518;-84
2022/03/04 12:35:57;;;;;;;17.63;9.02;;;;;;;;;;5050401;28;20033;-85
2022/03/04 12:38:24;;;;;;;14.38;7.90;;;;;;;;;;5045057;28;20025;-85
2022/03/04 12:40:50;;;;;;;17.73;9.05;;;;;;;;;;5051148;28;20089;-84
2022/03/04 12:43:16;;;;;;;14.43;8.35;;;;;;;;;;5054575;28;20032;-86
2022/03/04 12:45:42;;;;;;;17.30;9.80;;;;;;;;;;5050723;28;20037;-85
2022/03/04 12:48:08;;;;;;;18.73;9.65;;;;;;;;;;5051426;28;20394;-85
2022/03/04 12:50:36;;;;;;;16.05;9.05;;;;;;;;;;5043690;28;20116;-85
2022/03/04 12:53:38;;;;;;;15.93;8.88;;;;;;;;;;5067478;28;20127;-85
2022/03/04 12:56:04;;;;;;;14.70;7.72;;;;;;;;;;5090714;28;20041;-84
2022/03/04 12:58:40;;;;;;;14.38;8.45;;;;;;;;;;5088801;28;20032;-83
2022/03/04 13:01:07;;;;;;;17.63;9.25;;;;;;;;;;5088979;28;20480;-83
2022/03/04 13:03:33;;;;;;;18.38;9.32;;;;;;;;;;5080924;28;20039;-84
2022/03/04 13:06:00;;;;;;;16.73;8.10;;;;;;;;;;5094394;28;20091;-84
2022/03/04 13:08:26;;;;;;;13.68;8.32;;;;;;;;;;5076357;28;20050;-81
2022/03/04 13:10:53;;;;;;;15.88;9.20;;;;;;;;;;5069881;28;20046;-83
2022/03/04 13:13:19;;;;;;;16.90;9.20;;;;;;;;;;5092139;28;20082;-84
2022/03/04 13:15:46;;;;;;;15.43;8.30;;;;;;;;;;5094781;28;20510;-84
2022/03/04 13:18:12;;;;;;;12.90;7.50;;;;;;;;;;5083295;28;20040;-85
2022/03/04 13:20:38;;;;;;;16.55;8.75;;;;;;;;;;5077694;28;20043;-83
2022/03/04 13:23:05;;;;;;;12.43;6.78;;;;;;;;;;5092764;28;20055;-82
2022/03/04 13:25:31;;;;;;;11.40;5.78;;;;;;;;;;5086892;28;20054;-83
2022/03/04 13:27:57;;;;;;;10.43;5.82;;;;;;;;;;5088302;28;20512;-83
2022/03/04 13:30:24;;;;;;;13.88;6.60;;;;;;;;;;5051666;28;20046;-83
2022/03/04 13:32:54;;;;;;;12.85;6.55;;;;;;;;;;5041237;28;20025;-83
2022/03/04 13:35:22;;;;;;;12.82;6.32;;;;;;;;;;5039233;28;20022;-84
2022/03/04 13:37:48;;;;;;;10.07;6.28;;;;;;;;;;5039697;28;20037;-85
2022/03/04 13:40:22;;;;;;;12.32;6.70;;;;;;;;;;5043155;28;20024;-85
2022/03/04 13:42:52;;;;;;;11.77;6.03;;;;;;;;;;5052824;28;20025;-83
2022/03/04 13:45:32;;;;;;;13.25;6.90;;;;;;;;;;5046016;28;20025;-83
2022/03/04 13:47:59;;;;;;;15.15;7.43;;;;;;;;;;5052909;28;20376;-83
2022/03/04 13:50:25;;;;;;;12.85;7.10;;;;;;;;;;5047896;28;20287;-85
2022/03/04 13:52:57;;;;;;;12.82;7.28;;;;;;;;;;5043310;28;20162;-83
2022/03/04 13:55:31;;;;;;;13.00;6.93;;;;;;;;;;5057836;28;20037;-84
2022/03/04 13:58:01;;;;;;;13.68;7.32;;;;;;;;;;5052973;28;20021;-83
2022/03/04 14:00:33;;;;;;;14.02;7.13;;;;;;;;;;5046002;28;20371;-85
2022/03/04 14:03:03;;;;;;;11.65;6.70;;;;;;;;;;5045359;28;20018;-86
2022/03/04 14:05:30;;;;;;;12.32;6.13;;;;;;;;;;5054285;28;20035;-83
2022/03/04 14:08:03;;;;;;;11.15;6.13;;;;;;;;;;5059364;28;20025;-82
2022/03/04 14:10:31;;;;;;;11.48;6.38;;;;;;;;;;5057425;28;20021;-83
2022/03/04 14:12:57;;;;;;;12.90;6.20;;;;;;;;;;5056607;28;20017;-85
2022/03/04 14:15:23;;;;;;;13.18;6.53;;;;;;;;;;5055263;28;20033;-85
2022/03/04 14:17:50;;;;;;;10.98;5.65;;;;;;;;;;5060072;28;20021;-82
2022/03/04 14:20:16;;;;;;;11.50;5.78;;;;;;;;;;5047577;28;20053;-84